createdAt,value
2024-01-07T00:00:38.032Z,625.00
2024-01-07T00:01:37.999Z,630.00
2024-01-07T00:02:38.006Z,632.00
2024-01-07T00:03:38.057Z,631.00
2024-01-07T00:04:38.147Z,635.00
2024-01-07T00:05:38.112Z,634.00
2024-01-07T00:06:38.160Z,630.00
2024-01-07T00:07:38.139Z,634.00
2024-01-07T00:08:38.143Z,634.00
2024-01-07T00:09:38.207Z,636.00
2024-01-07T00:10:38.176Z,638.00
2024-01-07T00:11:38.201Z,632.00
2024-01-07T00:12:38.241Z,634.00
2024-01-07T00:13:38.234Z,632.00
2024-01-07T00:14:38.236Z,637.00
2024-01-07T00:15:38.323Z,637.00
2024-01-07T00:16:38.386Z,633.00
2024-01-07T00:17:38.412Z,633.00
2024-01-07T00:18:38.439Z,638.00
2024-01-07T00:19:38.389Z,634.00
2024-01-07T00:20:38.370Z,631.00
2024-01-07T00:21:38.424Z,633.00
2024-01-07T00:22:38.468Z,636.00
2024-01-07T00:23:38.440Z,634.00
2024-01-07T00:24:38.519Z,632.00
2024-01-07T00:25:38.486Z,633.00
2024-01-07T00:26:38.499Z,626.00
2024-01-07T00:27:38.524Z,633.00
2024-01-07T00:28:38.617Z,630.00
2024-01-07T00:29:38.539Z,627.00
2024-01-07T00:30:38.660Z,626.00
2024-01-07T00:31:38.737Z,627.00
2024-01-07T00:32:38.642Z,628.00
2024-01-07T00:33:38.760Z,627.00
2024-01-07T00:34:38.804Z,629.00
2024-01-07T00:35:38.653Z,622.00
2024-01-07T00:36:38.721Z,624.00
2024-01-07T00:37:38.681Z,620.00
2024-01-07T00:38:38.713Z,623.00
2024-01-07T00:39:38.743Z,624.00
2024-01-07T00:40:38.837Z,625.00
2024-01-07T00:41:38.771Z,623.00
2024-01-07T00:42:38.777Z,620.00
2024-01-07T00:43:38.795Z,622.00
2024-01-07T00:44:38.803Z,620.00
2024-01-07T00:45:38.904Z,618.00
2024-01-07T00:46:38.854Z,620.00
2024-01-07T00:47:38.961Z,620.00
2024-01-07T00:48:39.037Z,621.00
2024-01-07T00:49:38.971Z,623.00
2024-01-07T00:50:38.906Z,622.00
2024-01-07T00:51:38.960Z,623.00
2024-01-07T00:52:39.046Z,615.00
2024-01-07T00:53:38.953Z,617.00
2024-01-07T00:54:39.020Z,619.00
2024-01-07T00:55:39.005Z,619.00
2024-01-07T00:56:39.026Z,619.00
2024-01-07T00:57:39.111Z,616.00
2024-01-07T00:58:39.041Z,618.00
2024-01-07T00:59:39.064Z,620.00
2024-01-07T01:00:39.200Z,619.00
2024-01-07T01:01:39.215Z,612.00
2024-01-07T01:02:39.118Z,610.00
2024-01-07T01:03:39.256Z,615.00
2024-01-07T01:04:39.295Z,613.00
2024-01-07T01:05:39.224Z,612.00
2024-01-07T01:06:39.240Z,612.00
2024-01-07T01:07:39.181Z,607.00
2024-01-07T01:08:39.190Z,608.00
2024-01-07T01:09:39.216Z,608.00
2024-01-07T01:10:39.215Z,605.00
2024-01-07T01:11:39.276Z,607.00
2024-01-07T01:12:39.306Z,604.00
2024-01-07T01:13:39.270Z,603.00
2024-01-07T01:14:39.291Z,603.00
2024-01-07T01:15:39.318Z,605.00
2024-01-07T01:16:39.410Z,609.00
2024-01-07T01:17:39.419Z,609.00
2024-01-07T01:18:39.455Z,602.00
2024-01-07T01:19:39.478Z,605.00
2024-01-07T01:20:39.395Z,604.00
2024-01-07T01:21:39.416Z,605.00
2024-01-07T01:22:39.409Z,601.00
2024-01-07T01:23:39.449Z,604.00
2024-01-07T01:24:39.464Z,603.00
2024-01-07T01:25:39.501Z,605.00
2024-01-07T01:26:39.472Z,606.00
2024-01-07T01:27:39.569Z,602.00
2024-01-07T01:28:39.629Z,608.00
2024-01-07T01:29:39.544Z,606.00
2024-01-07T01:30:39.655Z,607.00
2024-01-07T01:31:39.756Z,604.00
2024-01-07T01:32:39.719Z,605.00
2024-01-07T01:33:39.820Z,605.00
2024-01-07T01:34:39.743Z,603.00
2024-01-07T01:35:39.761Z,609.00
2024-01-07T01:36:39.845Z,607.00
2024-01-07T01:37:39.836Z,606.00
2024-01-07T01:38:58.490Z,600.00
2024-01-07T01:39:58.620Z,600.00
2024-01-07T01:40:58.489Z,600.00
2024-01-07T01:41:58.491Z,600.00
2024-01-07T01:42:58.527Z,600.00
2024-01-07T01:43:58.483Z,605.00
2024-01-07T01:44:58.466Z,603.00
2024-01-07T01:45:58.506Z,603.00
2024-01-07T01:46:58.477Z,601.00
2024-01-07T01:47:58.505Z,607.00
2024-01-07T01:48:58.547Z,605.00
2024-01-07T01:49:58.510Z,601.00
2024-01-07T01:50:58.533Z,606.00
2024-01-07T01:51:58.564Z,604.00
2024-01-07T01:52:58.438Z,606.00
2024-01-07T01:53:58.424Z,607.00
2024-01-07T01:54:58.441Z,605.00
2024-01-07T01:55:58.409Z,600.00
2024-01-07T01:56:58.428Z,601.00
2024-01-07T01:57:58.459Z,602.00
2024-01-07T01:58:58.400Z,602.00
2024-01-07T01:59:58.365Z,603.00
2024-01-07T02:00:58.478Z,606.00
2024-01-07T02:01:58.399Z,602.00
2024-01-07T02:02:58.474Z,603.00
2024-01-07T02:03:58.405Z,605.00
2024-01-07T02:04:58.457Z,605.00
2024-01-07T02:05:58.339Z,604.00
2024-01-07T02:06:58.359Z,605.00
2024-01-07T02:07:58.320Z,606.00
2024-01-07T02:08:58.312Z,603.00
2024-01-07T02:09:58.354Z,600.00
2024-01-07T02:10:58.287Z,604.00
2024-01-07T02:11:58.288Z,605.00
2024-01-07T02:12:58.295Z,605.00
2024-01-07T02:13:58.284Z,600.00
2024-01-07T02:14:58.350Z,602.00
2024-01-07T02:15:58.298Z,600.00
2024-01-07T02:16:58.245Z,604.00
2024-01-07T02:17:58.264Z,605.00
2024-01-07T02:18:58.320Z,607.00
2024-01-07T02:19:58.344Z,601.00
2024-01-07T02:20:58.205Z,602.00
2024-01-07T02:21:58.228Z,607.00
2024-01-07T02:22:58.196Z,604.00
2024-01-07T02:23:58.217Z,607.00
2024-01-07T02:24:58.187Z,603.00
2024-01-07T02:25:58.170Z,611.00
2024-01-07T02:26:58.261Z,610.00
2024-01-07T02:27:58.272Z,607.00
2024-01-07T02:28:58.205Z,605.00
2024-01-07T02:29:58.264Z,609.00
2024-01-07T02:30:58.354Z,607.00
2024-01-07T02:31:58.300Z,604.00
2024-01-07T02:32:58.401Z,607.00
2024-01-07T02:33:58.509Z,605.00
2024-01-07T02:34:58.378Z,608.00
2024-01-07T02:35:58.431Z,612.00
2024-01-07T02:36:58.513Z,607.00
2024-01-07T02:37:58.481Z,608.00
2024-01-07T02:38:58.604Z,605.00
2024-01-07T02:40:01.376Z,606.00
2024-01-07T02:40:58.520Z,607.00
2024-01-07T02:41:58.511Z,606.00
2024-01-07T02:42:58.504Z,610.00
2024-01-07T02:43:58.484Z,606.00
2024-01-07T02:44:58.494Z,603.00
2024-01-07T02:45:58.514Z,605.00
2024-01-07T02:46:58.460Z,608.00
2024-01-07T02:47:58.486Z,601.00
2024-01-07T02:48:58.483Z,604.00
2024-01-07T02:49:58.591Z,607.00
2024-01-07T02:50:58.448Z,603.00
2024-01-07T02:51:58.422Z,607.00
2024-01-07T02:52:58.381Z,605.00
2024-01-07T02:53:58.369Z,601.00
2024-01-07T02:54:58.496Z,605.00
2024-01-07T02:55:58.355Z,606.00
2024-01-07T02:56:58.336Z,608.00
2024-01-07T02:57:58.347Z,606.00
2024-01-07T02:58:58.327Z,605.00
2024-01-07T02:59:58.315Z,609.00
2024-01-07T03:00:58.399Z,604.00
2024-01-07T03:01:58.428Z,608.00
2024-01-07T03:02:58.325Z,608.00
2024-01-07T03:03:58.344Z,611.00
2024-01-07T03:04:58.284Z,609.00
2024-01-07T03:05:58.300Z,612.00
2024-01-07T03:06:58.304Z,604.00
2024-01-07T03:07:58.229Z,609.00
2024-01-07T03:08:58.225Z,609.00
2024-01-07T03:09:58.268Z,609.00
2024-01-07T03:10:58.221Z,607.00
2024-01-07T03:11:58.200Z,607.00
2024-01-07T03:12:58.205Z,604.00
2024-01-07T03:13:58.239Z,609.00
2024-01-07T03:14:58.157Z,610.00
2024-01-07T03:15:58.201Z,606.00
2024-01-07T03:16:58.132Z,613.00
2024-01-07T03:17:58.169Z,612.00
2024-01-07T03:18:58.184Z,604.00
2024-01-07T03:19:58.080Z,611.00
2024-01-07T03:20:58.096Z,609.00
2024-01-07T03:21:58.090Z,613.00
2024-01-07T03:22:58.058Z,611.00
2024-01-07T03:23:58.060Z,607.00
2024-01-07T03:24:58.143Z,609.00
2024-01-07T03:25:58.190Z,610.00
2024-01-07T03:26:58.129Z,607.00
2024-01-07T03:27:58.228Z,607.00
2024-01-07T03:28:58.182Z,609.00
2024-01-07T03:29:58.209Z,611.00
2024-01-07T03:30:58.307Z,609.00
2024-01-07T03:31:58.251Z,614.00
2024-01-07T03:32:58.380Z,615.00
2024-01-07T03:33:58.493Z,614.00
2024-01-07T03:34:58.381Z,609.00
2024-01-07T03:35:58.380Z,611.00
2024-01-07T03:36:58.512Z,611.00
2024-01-07T03:37:58.542Z,613.00
2024-01-07T03:38:58.487Z,607.00
2024-01-07T03:39:58.576Z,612.00
2024-01-07T03:40:58.531Z,613.00
2024-01-07T03:41:58.567Z,613.00
2024-01-07T03:42:58.614Z,609.00
2024-01-07T03:43:58.635Z,615.00
2024-01-07T03:44:58.645Z,610.00
2024-01-07T03:45:58.769Z,615.00
2024-01-07T03:46:58.716Z,609.00
2024-01-07T03:47:58.800Z,618.00
2024-01-07T03:48:58.957Z,613.00
2024-01-07T03:49:58.894Z,615.00
2024-01-07T03:50:58.843Z,611.00
2024-01-07T03:51:58.954Z,613.00
2024-01-07T03:52:58.913Z,613.00
2024-01-07T03:53:58.925Z,616.00
2024-01-07T03:54:59.008Z,612.00
2024-01-07T03:55:58.993Z,613.00
2024-01-07T03:56:59.041Z,612.00
2024-01-07T03:57:59.095Z,617.00
2024-01-07T03:58:59.115Z,617.00
2024-01-07T03:59:59.132Z,613.00
2024-01-07T04:00:59.267Z,615.00
2024-01-07T04:01:59.400Z,619.00
2024-01-07T04:02:59.258Z,620.00
2024-01-07T04:03:59.405Z,621.00
2024-01-07T04:04:59.285Z,616.00
2024-01-07T04:05:59.359Z,620.00
2024-01-07T04:06:59.413Z,617.00
2024-01-07T04:07:59.406Z,615.00
2024-01-07T04:08:59.432Z,613.00
2024-01-07T04:09:59.497Z,618.00
2024-01-07T04:10:59.490Z,613.00
2024-01-07T04:11:59.542Z,618.00
2024-01-07T04:12:59.561Z,614.00
2024-01-07T04:13:59.688Z,619.00
2024-01-07T04:14:59.603Z,617.00
2024-01-07T04:15:59.701Z,614.00
2024-01-07T04:16:59.677Z,615.00
2024-01-07T04:17:59.806Z,620.00
2024-01-07T04:18:59.833Z,617.00
2024-01-07T04:19:59.863Z,615.00
2024-01-07T04:20:59.828Z,621.00
2024-01-07T04:21:59.874Z,618.00
2024-01-07T04:22:59.880Z,616.00
2024-01-07T04:23:59.924Z,621.00
2024-01-07T04:24:59.965Z,618.00
2024-01-07T04:26:00.049Z,614.00
2024-01-07T04:27:00.017Z,616.00
2024-01-07T04:28:00.070Z,617.00
2024-01-07T04:29:00.071Z,615.00
2024-01-07T04:30:00.132Z,614.00
2024-01-07T04:31:00.263Z,611.00
2024-01-07T04:32:07.560Z,600.00
2024-01-07T04:33:07.618Z,600.00
2024-01-07T04:34:07.685Z,600.00
2024-01-07T04:35:07.749Z,600.00
2024-01-07T04:36:07.579Z,600.00
2024-01-07T04:37:07.715Z,605.00
2024-01-07T04:38:07.590Z,600.00
2024-01-07T04:39:07.590Z,608.00
2024-01-07T04:40:07.745Z,602.00
2024-01-07T04:41:07.608Z,609.00
2024-01-07T04:42:09.402Z,605.00
2024-01-07T04:43:07.682Z,605.00
2024-01-07T04:44:07.630Z,606.00
2024-01-07T04:45:07.630Z,604.00
2024-01-07T04:46:07.774Z,601.00
2024-01-07T04:47:07.633Z,604.00
2024-01-07T04:48:07.679Z,600.00
2024-01-07T04:49:07.879Z,602.00
2024-01-07T04:50:07.618Z,603.00
2024-01-07T04:51:07.655Z,601.00
2024-01-07T04:52:07.690Z,600.00
2024-01-07T04:53:07.624Z,602.00
2024-01-07T04:54:07.627Z,602.00
2024-01-07T04:55:07.762Z,602.00
2024-01-07T04:56:07.638Z,603.00
2024-01-07T04:57:07.626Z,604.00
2024-01-07T04:58:07.745Z,603.00
2024-01-07T04:59:07.637Z,601.00
2024-01-07T05:00:07.626Z,602.00
2024-01-07T05:01:07.800Z,600.00
2024-01-07T05:02:07.644Z,606.00
2024-01-07T05:03:07.700Z,610.00
2024-01-07T05:04:07.688Z,609.00
2024-01-07T05:05:07.640Z,612.00
2024-01-07T05:06:07.651Z,613.00
2024-01-07T05:07:07.638Z,614.00
2024-01-07T05:08:07.639Z,613.00
2024-01-07T05:09:07.673Z,615.00
2024-01-07T05:10:07.732Z,614.00
2024-01-07T05:11:07.640Z,612.00
2024-01-07T05:12:07.680Z,618.00
2024-01-07T05:13:07.790Z,611.00
2024-01-07T05:14:07.627Z,619.00
2024-01-07T05:15:07.615Z,615.00
2024-01-07T05:16:07.660Z,617.00
2024-01-07T05:17:07.598Z,620.00
2024-01-07T05:18:07.665Z,619.00
2024-01-07T05:19:07.670Z,617.00
2024-01-07T05:20:07.743Z,617.00
2024-01-07T05:21:07.607Z,620.00
2024-01-07T05:22:07.702Z,622.00
2024-01-07T05:23:07.587Z,621.00
2024-01-07T05:24:07.610Z,619.00
2024-01-07T05:25:07.714Z,625.00
2024-01-07T05:26:07.593Z,616.00
2024-01-07T05:27:07.586Z,620.00
2024-01-07T05:28:07.771Z,618.00
2024-01-07T05:29:07.584Z,621.00
2024-01-07T05:30:07.681Z,619.00
2024-01-07T05:31:07.695Z,622.00
2024-01-07T05:32:07.598Z,618.00
2024-01-07T05:33:07.757Z,620.00
2024-01-07T05:34:07.742Z,617.00
2024-01-07T05:35:08.597Z,617.00
2024-01-07T05:36:07.595Z,618.00
2024-01-07T05:37:07.737Z,620.00
2024-01-07T05:38:07.609Z,622.00
2024-01-07T05:39:07.579Z,621.00
2024-01-07T05:40:07.779Z,624.00
2024-01-07T05:41:07.588Z,623.00
2024-01-07T05:42:07.572Z,624.00
2024-01-07T05:43:07.651Z,623.00
2024-01-07T05:44:07.607Z,626.00
2024-01-07T05:45:07.606Z,625.00
2024-01-07T05:46:07.826Z,626.00
2024-01-07T05:47:07.610Z,621.00
2024-01-07T05:48:07.673Z,622.00
2024-01-07T05:49:07.819Z,623.00
2024-01-07T05:50:07.676Z,622.00
2024-01-07T05:51:07.663Z,626.00
2024-01-07T05:52:07.698Z,621.00
2024-01-07T05:53:07.646Z,621.00
2024-01-07T05:54:07.636Z,621.00
2024-01-07T05:55:07.651Z,620.00
2024-01-07T05:56:07.628Z,622.00
2024-01-07T05:57:07.632Z,622.00
2024-01-07T05:58:07.701Z,622.00
2024-01-07T05:59:07.685Z,617.00
2024-01-07T06:00:07.709Z,622.00
2024-01-07T06:01:07.964Z,620.00
2024-01-07T06:02:07.847Z,618.00
2024-01-07T06:03:07.827Z,617.00
2024-01-07T06:04:07.938Z,620.00
2024-01-07T06:05:07.906Z,618.00
2024-01-07T06:06:07.966Z,612.00
2024-01-07T06:07:07.998Z,617.00
2024-01-07T06:08:08.098Z,617.00
2024-01-07T06:09:07.936Z,617.00
2024-01-07T06:10:08.099Z,615.00
2024-01-07T06:11:08.050Z,614.00
2024-01-07T06:12:08.014Z,615.00
2024-01-07T06:13:08.205Z,614.00
2024-01-07T06:14:08.099Z,613.00
2024-01-07T06:15:08.118Z,615.00
2024-01-07T06:16:08.256Z,615.00
2024-01-07T06:17:08.170Z,613.00
2024-01-07T06:18:08.365Z,615.00
2024-01-07T06:19:08.338Z,616.00
2024-01-07T06:20:08.419Z,614.00
2024-01-07T06:21:08.291Z,615.00
2024-01-07T06:22:08.385Z,614.00
2024-01-07T06:23:08.369Z,615.00
2024-01-07T06:24:08.385Z,614.00
2024-01-07T06:25:08.566Z,614.00
2024-01-07T06:26:08.452Z,614.00
2024-01-07T06:27:08.496Z,616.00
2024-01-07T06:28:08.658Z,612.00
2024-01-07T06:29:08.536Z,619.00
2024-01-07T06:30:08.636Z,620.00
2024-01-07T06:31:08.718Z,618.00
2024-01-07T06:32:08.653Z,618.00
2024-01-07T06:33:08.769Z,618.00
2024-01-07T06:34:08.837Z,619.00
2024-01-07T06:35:08.745Z,619.00
2024-01-07T06:36:08.804Z,617.00
2024-01-07T06:37:09.043Z,620.00
2024-01-07T06:38:08.872Z,618.00
2024-01-07T06:39:08.940Z,614.00
2024-01-07T06:40:08.991Z,620.00
2024-01-07T06:41:08.973Z,621.00
2024-01-07T06:42:09.010Z,622.00
2024-01-07T06:43:09.187Z,621.00
2024-01-07T06:44:09.078Z,617.00
2024-01-07T06:45:09.110Z,619.00
2024-01-07T06:46:09.235Z,618.00
2024-01-07T06:47:09.189Z,613.00
2024-01-07T06:48:09.325Z,619.00
2024-01-07T06:49:09.401Z,619.00
2024-01-07T06:50:09.314Z,617.00
2024-01-07T06:51:09.355Z,621.00
2024-01-07T06:52:09.456Z,621.00
2024-01-07T06:53:09.391Z,620.00
2024-01-07T06:54:12.513Z,624.00
2024-01-07T06:55:09.531Z,623.00
2024-01-07T06:56:09.438Z,625.00
2024-01-07T06:57:09.434Z,627.00
2024-01-07T06:58:09.478Z,629.00
2024-01-07T06:59:09.447Z,631.00
2024-01-07T07:00:09.481Z,630.00
2024-01-07T07:01:09.619Z,634.00
2024-01-07T07:02:09.503Z,635.00
2024-01-07T07:03:09.541Z,632.00
2024-01-07T07:04:09.522Z,638.00
2024-01-07T07:05:09.472Z,640.00
2024-01-07T07:06:09.480Z,643.00
2024-01-07T07:07:09.536Z,643.00
2024-01-07T07:08:09.475Z,642.00
2024-01-07T07:09:09.466Z,640.00
2024-01-07T07:10:09.627Z,643.00
2024-01-07T07:11:09.475Z,643.00
2024-01-07T07:12:09.479Z,643.00
2024-01-07T07:13:09.568Z,642.00
2024-01-07T07:14:09.464Z,642.00
2024-01-07T07:15:09.467Z,642.00
2024-01-07T07:16:09.579Z,642.00
2024-01-07T07:17:09.475Z,640.00
2024-01-07T07:18:09.514Z,640.00
2024-01-07T07:19:09.651Z,636.00
2024-01-07T07:20:09.569Z,639.00
2024-01-07T07:21:09.501Z,634.00
2024-01-07T07:22:09.522Z,636.00
2024-01-07T07:23:09.473Z,635.00
2024-01-07T07:24:09.626Z,634.00
2024-01-07T07:25:09.585Z,635.00
2024-01-07T07:26:09.606Z,636.00
2024-01-07T07:27:09.603Z,633.00
2024-01-07T07:28:09.841Z,633.00
2024-01-07T07:29:09.700Z,633.00
2024-01-07T07:30:09.785Z,634.00
2024-01-07T07:31:09.865Z,631.00
2024-01-07T07:32:09.859Z,633.00
2024-01-07T07:33:09.883Z,627.00
2024-01-07T07:34:09.952Z,630.00
2024-01-07T07:35:09.893Z,629.00
2024-01-07T07:36:09.990Z,628.00
2024-01-07T07:37:09.973Z,630.00
2024-01-07T07:38:09.951Z,628.00
2024-01-07T07:39:09.978Z,630.00
2024-01-07T07:40:10.102Z,630.00
2024-01-07T07:41:10.081Z,627.00
2024-01-07T07:42:10.098Z,628.00
2024-01-07T07:43:10.186Z,630.00
2024-01-07T07:44:10.165Z,633.00
2024-01-07T07:45:10.191Z,630.00
2024-01-07T07:46:10.309Z,631.00
2024-01-07T07:47:10.277Z,631.00
2024-01-07T07:48:10.406Z,629.00
2024-01-07T07:49:10.396Z,625.00
2024-01-07T07:50:10.523Z,633.00
2024-01-07T07:51:10.407Z,634.00
2024-01-07T07:52:10.556Z,633.00
2024-01-07T07:53:10.474Z,632.00
2024-01-07T07:54:10.488Z,637.00
2024-01-07T07:55:10.594Z,634.00
2024-01-07T07:56:10.562Z,637.00
2024-01-07T07:57:10.623Z,639.00
2024-01-07T07:58:10.713Z,635.00
2024-01-07T07:59:10.773Z,638.00
2024-01-07T08:00:10.757Z,638.00
2024-01-07T08:01:10.821Z,634.00
2024-01-07T08:02:10.767Z,635.00
2024-01-07T08:03:10.823Z,638.00
2024-01-07T08:04:10.836Z,639.00
2024-01-07T08:05:10.981Z,636.00
2024-01-07T08:06:12.530Z,638.00
2024-01-07T08:07:11.015Z,637.00
2024-01-07T08:08:10.923Z,640.00
2024-01-07T08:09:10.964Z,638.00
2024-01-07T08:10:11.152Z,640.00
2024-01-07T08:11:11.129Z,638.00
2024-01-07T08:12:11.054Z,636.00
2024-01-07T08:13:11.180Z,639.00
2024-01-07T08:14:11.152Z,639.00
2024-01-07T08:15:11.183Z,635.00
2024-01-07T08:16:11.499Z,642.00
2024-01-07T08:17:11.254Z,639.00
2024-01-07T08:18:11.363Z,643.00
2024-01-07T08:19:11.378Z,642.00
2024-01-07T08:20:11.430Z,642.00
2024-01-07T08:21:11.395Z,642.00
2024-01-07T08:22:11.458Z,648.00
2024-01-07T08:23:11.609Z,644.00
2024-01-07T08:24:11.517Z,644.00
2024-01-07T08:25:11.564Z,649.00
2024-01-07T08:26:11.584Z,644.00
2024-01-07T08:27:11.606Z,646.00
2024-01-07T08:28:11.705Z,648.00
2024-01-07T08:29:11.675Z,644.00
2024-01-07T08:30:11.769Z,644.00
2024-01-07T08:31:11.811Z,650.00
2024-01-07T08:32:11.788Z,643.00
2024-01-07T08:33:11.895Z,651.00
2024-01-07T08:34:11.893Z,651.00
2024-01-07T08:35:11.956Z,654.00
2024-01-07T08:36:11.962Z,652.00
2024-01-07T08:37:12.108Z,653.00
2024-01-07T08:38:12.030Z,648.00
2024-01-07T08:39:12.041Z,651.00
2024-01-07T08:40:12.102Z,655.00
2024-01-07T08:41:12.123Z,655.00
2024-01-07T08:42:12.159Z,652.00
2024-01-07T08:43:12.229Z,652.00
2024-01-07T08:44:12.192Z,653.00
2024-01-07T08:45:12.245Z,655.00
2024-01-07T08:46:12.386Z,656.00
2024-01-07T08:47:12.405Z,657.00
2024-01-07T08:48:12.445Z,656.00
2024-01-07T08:49:12.503Z,657.00
2024-01-07T08:50:12.451Z,660.00
2024-01-07T08:51:12.428Z,658.00
2024-01-07T08:52:12.571Z,657.00
2024-01-07T08:53:12.517Z,661.00
2024-01-07T08:54:12.543Z,662.00
2024-01-07T08:55:12.758Z,661.00
2024-01-07T08:56:12.665Z,662.00
2024-01-07T08:57:12.647Z,663.00
2024-01-07T08:58:12.738Z,665.00
2024-01-07T08:59:12.828Z,664.00
2024-01-07T09:00:12.735Z,662.00
2024-01-07T09:01:12.875Z,660.00
2024-01-07T09:02:12.877Z,667.00
2024-01-07T09:03:12.889Z,668.00
2024-01-07T09:04:12.907Z,665.00
2024-01-07T09:05:12.950Z,670.00
2024-01-07T09:06:12.994Z,668.00
2024-01-07T09:07:12.998Z,673.00
2024-01-07T09:08:13.029Z,677.00
2024-01-07T09:09:13.062Z,678.00
2024-01-07T09:10:13.227Z,687.00
2024-01-07T09:11:13.244Z,679.00
2024-01-07T09:12:13.176Z,674.00
2024-01-07T09:13:13.268Z,678.00
2024-01-07T09:14:13.269Z,675.00
2024-01-07T09:15:13.279Z,672.00
2024-01-07T09:16:13.577Z,675.00
2024-01-07T09:17:13.345Z,678.00
2024-01-07T09:18:13.592Z,675.00
2024-01-07T09:19:15.036Z,680.00
2024-01-07T09:20:13.507Z,670.00
2024-01-07T09:21:13.530Z,670.00
2024-01-07T09:22:13.573Z,669.00
2024-01-07T09:23:13.568Z,667.00
2024-01-07T09:24:13.567Z,674.00
2024-01-07T09:25:13.655Z,668.00
2024-01-07T09:26:13.671Z,662.00
2024-01-07T09:27:13.667Z,665.00
2024-01-07T09:28:13.788Z,667.00
2024-01-07T09:29:13.758Z,668.00
2024-01-07T09:30:13.877Z,673.00
2024-01-07T09:31:13.949Z,670.00
2024-01-07T09:32:13.863Z,666.00
2024-01-07T09:33:14.036Z,669.00
2024-01-07T09:34:13.984Z,668.00
2024-01-07T09:35:13.972Z,680.00
2024-01-07T09:36:21.107Z,668.00
2024-01-07T09:37:15.071Z,668.00
2024-01-07T09:38:15.386Z,669.00
2024-01-07T09:39:13.997Z,670.00
2024-01-07T09:40:14.056Z,676.00
2024-01-07T09:41:14.034Z,684.00
2024-01-07T09:42:13.997Z,683.00
2024-01-07T09:43:14.037Z,675.00
2024-01-07T09:44:13.990Z,691.00
2024-01-07T09:45:13.989Z,678.00
2024-01-07T09:46:14.135Z,686.00
2024-01-07T09:47:14.071Z,695.00
2024-01-07T09:48:14.096Z,688.00
2024-01-07T09:49:14.137Z,681.00
2024-01-07T09:50:14.012Z,684.00
2024-01-07T09:51:14.045Z,685.00
2024-01-07T09:52:14.122Z,686.00
2024-01-07T09:53:14.027Z,677.00
2024-01-07T09:54:14.053Z,682.00
2024-01-07T09:55:14.185Z,676.00
2024-01-07T09:56:14.130Z,686.00
2024-01-07T09:57:14.137Z,668.00
2024-01-07T09:58:14.280Z,680.00
2024-01-07T09:59:14.204Z,676.00
2024-01-07T10:00:14.218Z,676.00
2024-01-07T10:01:14.404Z,665.00
2024-01-07T10:02:14.442Z,665.00
2024-01-07T10:03:14.342Z,677.00
2024-01-07T10:04:14.475Z,667.00
2024-01-07T10:05:14.362Z,666.00
2024-01-07T10:06:14.578Z,668.00
2024-01-07T10:07:14.527Z,664.00
2024-01-07T10:08:14.474Z,661.00
2024-01-07T10:09:14.501Z,664.00
2024-01-07T10:10:14.616Z,661.00
2024-01-07T10:11:14.557Z,659.00
2024-01-07T10:12:14.573Z,659.00
2024-01-07T10:13:14.702Z,657.00
2024-01-07T10:14:14.637Z,655.00
2024-01-07T10:15:14.670Z,661.00
2024-01-07T10:16:14.836Z,656.00
2024-01-07T10:17:14.712Z,657.00
2024-01-07T10:18:14.803Z,658.00
2024-01-07T10:19:14.819Z,654.00
2024-01-07T10:20:14.804Z,653.00
2024-01-07T10:21:14.868Z,656.00
2024-01-07T10:22:14.917Z,653.00
2024-01-07T10:23:14.897Z,654.00
2024-01-07T10:24:14.987Z,653.00
2024-01-07T10:25:15.030Z,649.00
2024-01-07T10:26:20.381Z,651.00
2024-01-07T10:27:15.985Z,651.00
2024-01-07T10:28:15.030Z,651.00
2024-01-07T10:29:15.005Z,645.00
2024-01-07T10:30:15.018Z,645.00
2024-01-07T10:31:15.365Z,641.00
2024-01-07T10:32:15.015Z,642.00
2024-01-07T10:33:15.067Z,638.00
2024-01-07T10:34:15.105Z,639.00
2024-01-07T10:35:15.030Z,636.00
2024-01-07T10:36:15.005Z,636.00
2024-01-07T10:37:15.044Z,634.00
2024-01-07T10:38:15.019Z,633.00
2024-01-07T10:39:15.009Z,631.00
2024-01-07T10:40:15.169Z,632.00
2024-01-07T10:41:15.044Z,630.00
2024-01-07T10:42:15.036Z,626.00
2024-01-07T10:43:15.083Z,628.00
2024-01-07T10:44:16.746Z,629.00
2024-01-07T10:45:15.067Z,631.00
2024-01-07T10:46:15.138Z,626.00
2024-01-07T10:47:15.043Z,625.00
2024-01-07T10:48:15.116Z,623.00
2024-01-07T10:49:15.197Z,627.00
2024-01-07T10:50:15.110Z,624.00
2024-01-07T10:51:15.146Z,617.00
2024-01-07T10:52:15.185Z,623.00
2024-01-07T10:53:15.151Z,622.00
2024-01-07T10:54:15.181Z,625.00
2024-01-07T10:55:15.302Z,623.00
2024-01-07T10:56:15.239Z,619.00
2024-01-07T10:57:15.248Z,619.00
2024-01-07T10:58:15.324Z,620.00
2024-01-07T10:59:15.304Z,618.00
2024-01-07T11:00:15.342Z,615.00
2024-01-07T11:01:15.423Z,622.00
2024-01-07T11:02:15.640Z,617.00
2024-01-07T11:03:15.460Z,619.00
2024-01-07T11:04:15.562Z,613.00
2024-01-07T11:05:15.473Z,615.00
2024-01-07T11:06:15.498Z,616.00
2024-01-07T11:07:15.580Z,612.00
2024-01-07T11:08:15.519Z,612.00
2024-01-07T11:09:15.560Z,614.00
2024-01-07T11:10:15.643Z,613.00
2024-01-07T11:11:15.607Z,612.00
2024-01-07T11:12:15.624Z,613.00
2024-01-07T11:13:15.749Z,609.00
2024-01-07T11:14:15.670Z,608.00
2024-01-07T11:15:15.727Z,610.00
2024-01-07T11:16:15.934Z,601.00
2024-01-07T11:17:15.759Z,604.00
2024-01-07T11:18:15.853Z,604.00
2024-01-07T11:19:15.911Z,604.00
2024-01-07T11:20:15.815Z,607.00
2024-01-07T11:21:15.856Z,602.00
2024-01-07T11:22:15.998Z,602.00
2024-01-07T11:23:15.936Z,607.00
2024-01-07T11:24:15.917Z,605.00
2024-01-07T11:25:16.028Z,602.00
2024-01-07T11:26:15.984Z,606.00
2024-01-07T11:27:16.011Z,605.00
2024-01-07T11:28:16.050Z,608.00
2024-01-07T11:29:16.044Z,600.00
2024-01-07T11:30:16.058Z,601.00
2024-01-07T11:31:16.282Z,604.00
2024-01-07T11:32:16.094Z,602.00
2024-01-07T11:33:16.272Z,608.00
2024-01-07T11:34:16.207Z,601.00
2024-01-07T11:35:16.234Z,609.00
2024-01-07T11:36:16.188Z,606.00
2024-01-07T11:37:16.343Z,602.00
2024-01-07T11:38:16.207Z,600.00
2024-01-07T11:39:16.241Z,607.00
2024-01-07T11:40:16.438Z,605.00
2024-01-07T11:41:16.282Z,603.00
2024-01-07T11:42:16.276Z,600.00
2024-01-07T11:43:16.322Z,602.00
2024-01-07T11:44:16.370Z,611.00
2024-01-07T11:45:16.350Z,605.00
2024-01-07T11:46:16.445Z,609.00
2024-01-07T11:47:16.388Z,606.00
2024-01-07T11:48:16.458Z,607.00
2024-01-07T11:49:16.497Z,605.00
2024-01-07T11:50:16.466Z,607.00
2024-01-07T11:51:16.459Z,602.00
2024-01-07T11:52:16.532Z,600.00
2024-01-07T11:53:16.529Z,605.00
2024-01-07T11:54:16.538Z,600.00
2024-01-07T11:55:16.642Z,608.00
2024-01-07T11:56:16.587Z,606.00
2024-01-07T11:57:16.619Z,602.00
2024-01-07T11:58:16.716Z,601.00
2024-01-07T11:59:16.650Z,600.00
2024-01-07T12:00:16.703Z,602.00
2024-01-07T12:01:16.781Z,602.00
2024-01-07T12:02:16.762Z,609.00
2024-01-07T12:03:16.758Z,605.00
2024-01-07T12:04:16.837Z,609.00
2024-01-07T12:05:16.903Z,607.00
2024-01-07T12:06:16.864Z,604.00
2024-01-07T12:07:16.933Z,601.00
2024-01-07T12:08:16.844Z,606.00
2024-01-07T12:09:16.845Z,605.00
2024-01-07T12:10:16.966Z,606.00
2024-01-07T12:11:16.883Z,602.00
2024-01-07T12:12:16.889Z,604.00
2024-01-07T12:13:17.050Z,605.00
2024-01-07T12:14:16.914Z,603.00
2024-01-07T12:15:16.931Z,604.00
2024-01-07T12:16:16.977Z,604.00
2024-01-07T12:17:16.974Z,608.00
2024-01-07T12:18:17.102Z,602.00
2024-01-07T12:19:17.155Z,604.00
2024-01-07T12:20:17.007Z,603.00
2024-01-07T12:21:17.029Z,608.00
2024-01-07T12:22:17.103Z,600.00
2024-01-07T12:23:17.067Z,604.00
2024-01-07T12:24:17.077Z,602.00
2024-01-07T12:25:17.130Z,603.00
2024-01-07T12:26:17.131Z,607.00
2024-01-07T12:27:17.148Z,607.00
2024-01-07T12:28:17.173Z,603.00
2024-01-07T12:29:17.160Z,605.00